Time;durP1;ratioP1;P1;durP2;ratioP2;P2;SDS_P1;SDS_P2;PMS_P1;PMS_P2;Temp;Humidity;BMP_temperature;BMP_pressure;BME280_temperature;BME280_humidity;BME280_pressure;Samples;Min_cycle;Max_cycle;Signal;HPM_P1;HPM_P2
2022/11/22 00:00:27;;;;;;;70.30;28.60;;;;;;;0.28;84.33;99343.16;1718365;82;25596;-59
2022/11/22 00:02:55;;;;;;;76.70;29.60;;;;;;;0.30;84.34;99345.56;1724804;82;25480;-58
2022/11/22 00:05:21;;;;;;;81.57;29.35;;;;;;;0.30;84.30;99342.91;1735585;82;25810;-59
2022/11/22 00:07:48;;;;;;;82.30;31.40;;;;;;;0.30;84.25;99346.89;1731102;82;27347;-59
2022/11/22 00:10:15;;;;;;;68.65;25.95;;;;;;;0.29;84.17;99346.11;1714711;82;25812;-60
2022/11/22 00:12:42;;;;;;;80.67;29.35;;;;;;;0.29;84.26;99347.44;1722068;81;25777;-60
2022/11/22 00:15:10;;;;;;;76.12;27.32;;;;;;;0.28;84.28;99347.16;1750965;81;25827;-60
2022/11/22 00:17:37;;;;;;;81.92;28.32;;;;;;;0.27;84.43;99344.22;1727593;81;26833;-59
2022/11/22 00:20:06;;;;;;;88.50;31.68;;;;;;;0.26;84.41;99353.28;1719515;81;27316;-60
2022/11/22 00:22:33;;;;;;;77.22;28.02;;;;;;;0.26;84.39;99355.14;1699873;82;25740;-58
2022/11/22 00:24:59;;;;;;;79.35;27.37;;;;;;;0.25;84.32;99354.33;1707357;82;25494;-58
2022/11/22 00:27:25;;;;;;;85.65;28.90;;;;;;;0.26;84.38;99354.61;1719958;82;26304;-57
2022/11/22 00:29:51;;;;;;;89.00;29.25;;;;;;;0.28;84.34;99357.80;1722507;82;25714;-58
2022/11/22 00:32:18;;;;;;;73.90;28.40;;;;;;;0.28;84.37;99357.80;1718854;82;27338;-58
2022/11/22 00:34:44;;;;;;;75.22;28.47;;;;;;;0.28;84.39;99359.66;1726374;82;25484;-59
2022/11/22 00:37:10;;;;;;;79.55;28.40;;;;;;;0.28;84.44;99353.02;1744803;81;25796;-59
2022/11/22 00:39:36;;;;;;;79.92;27.93;;;;;;;0.28;84.34;99359.66;1732190;81;27728;-59
2022/11/22 00:42:03;;;;;;;80.75;28.85;;;;;;;0.26;84.39;99349.28;1745179;81;25788;-59
2022/11/22 00:44:29;;;;;;;80.45;29.42;;;;;;;0.25;84.33;99348.22;1727580;81;27435;-59
2022/11/22 00:46:56;;;;;;;80.67;28.27;;;;;;;0.27;84.45;99356.72;1736812;81;25827;-59
2022/11/22 00:49:22;;;;;;;77.40;29.65;;;;;;;0.27;84.49;99350.08;1744612;81;25778;-59
2022/11/22 00:51:48;;;;;;;83.97;27.67;;;;;;;0.27;84.46;99355.39;1745600;81;25562;-59
2022/11/22 00:54:14;;;;;;;69.32;26.37;;;;;;;0.27;84.53;99360.17;1736780;81;25654;-60
2022/11/22 00:56:41;;;;;;;82.22;29.55;;;;;;;0.27;84.51;99364.70;1718699;82;27328;-60
2022/11/22 00:59:08;;;;;;;77.90;29.32;;;;;;;0.26;84.51;99361.25;1739541;81;27180;-60
2022/11/22 01:01:34;;;;;;;79.60;27.98;;;;;;;0.24;84.45;99354.59;1743061;81;25960;-60
2022/11/22 01:04:00;;;;;;;83.27;28.20;;;;;;;0.25;84.61;99364.97;1735478;81;25628;-60
2022/11/22 01:06:26;;;;;;;79.35;27.55;;;;;;;0.25;84.70;99363.63;1721025;81;33071;-60
2022/11/22 01:08:54;;;;;;;84.25;29.18;;;;;;;0.25;84.68;99368.95;1733831;81;27352;-58
2022/11/22 01:11:21;;;;;;;83.30;27.37;;;;;;;0.24;84.86;99367.88;1732661;81;25848;-60
2022/11/22 01:13:47;;;;;;;84.42;26.73;;;;;;;0.20;84.76;99368.94;1735102;81;25783;-59
2022/11/22 01:16:15;;;;;;;78.57;25.97;;;;;;;0.19;84.80;99367.36;1734367;81;26322;-60
2022/11/22 01:18:42;;;;;;;79.90;27.73;;;;;;;0.20;84.89;99362.84;1731768;81;25456;-60
2022/11/22 01:21:09;;;;;;;78.17;28.60;;;;;;;0.21;84.96;99356.47;1732632;82;27277;-60
2022/11/22 01:23:37;;;;;;;65.25;25.12;;;;;;;0.20;84.91;99352.98;1739356;81;25843;-59
2022/11/22 01:26:05;;;;;;;85.03;29.40;;;;;;;0.19;84.95;99346.09;1741336;81;26317;-60
2022/11/22 01:28:31;;;;;;;79.62;27.37;;;;;;;0.20;85.03;99344.22;1732034;81;25857;-60
2022/11/22 01:30:58;;;;;;;77.00;27.73;;;;;;;0.18;85.01;99352.45;1740616;81;25752;-59
2022/11/22 01:33:24;;;;;;;74.22;25.30;;;;;;;0.16;85.05;99351.92;1739486;81;27340;-58
2022/11/22 01:35:51;;;;;;;71.62;25.65;;;;;;;0.17;85.08;99355.66;1726345;82;25813;-59
2022/11/22 01:38:17;;;;;;;76.02;25.60;;;;;;;0.17;85.14;99350.84;1735737;81;25617;-60
2022/11/22 01:40:43;;;;;;;74.50;25.40;;;;;;;0.16;85.13;99354.05;1731500;81;25810;-60
2022/11/22 01:43:18;;;;;;;71.47;24.63;;;;;;;0.16;85.06;99354.59;1737492;81;25460;-60
2022/11/22 01:45:49;;;;;;;77.70;26.27;;;;;;;0.17;85.18;99353.50;1729250;81;27249;-59
2022/11/22 01:48:39;;;;;;;79.70;26.40;;;;;;;0.17;85.21;99346.86;1737146;81;25806;-59
2022/11/22 01:51:29;;;;;;;71.50;24.85;;;;;;;0.18;85.26;99345.80;1739805;82;25634;-59
2022/11/22 01:54:00;;;;;;;71.37;24.12;;;;;;;0.15;85.20;99342.34;1755827;80;27822;-58
2022/11/22 01:56:28;;;;;;;79.05;25.30;;;;;;;0.16;85.29;99346.61;1727879;82;25728;-59
2022/11/22 01:58:59;;;;;;;75.37;25.43;;;;;;;0.15;85.25;99350.31;1726813;82;27059;-60
2022/11/22 02:01:28;;;;;;;64.25;24.32;;;;;;;0.15;85.33;99345.81;1728612;82;25879;-59
2022/11/22 02:03:57;;;;;;;74.45;24.07;;;;;;;0.15;85.27;99343.67;1727575;82;26276;-58
2022/11/22 02:06:29;;;;;;;72.35;24.23;;;;;;;0.13;85.37;99342.59;1724994;81;25684;-58
2022/11/22 02:09:06;;;;;;;72.05;23.30;;;;;;;0.13;85.40;99353.78;1732606;82;25764;-58
2022/11/22 02:11:37;;;;;;;76.85;25.08;;;;;;;0.13;85.37;99347.92;1733766;82;27263;-59
2022/11/22 02:14:05;;;;;;;70.35;24.70;;;;;;;0.13;85.47;99348.45;1738676;81;25814;-56
2022/11/22 02:16:33;;;;;;;71.60;25.12;;;;;;;0.12;85.44;99354.83;1725930;81;25637;-58
2022/11/22 02:19:00;;;;;;;70.13;25.33;;;;;;;0.12;85.47;99356.97;1726121;82;25784;-59
2022/11/22 02:21:28;;;;;;;76.15;22.73;;;;;;;0.12;85.60;99358.30;1726401;82;25854;-58
2022/11/22 02:24:06;;;;;;;65.70;23.00;;;;;;;0.11;85.58;99363.34;1726641;82;27338;-58
2022/11/22 02:26:32;;;;;;;68.30;24.12;;;;;;;0.12;85.54;99368.94;1730990;82;25973;-59
2022/11/22 02:29:04;;;;;;;68.90;24.77;;;;;;;0.14;85.57;99370.02;1729402;82;25513;-58
2022/11/22 02:31:38;;;;;;;66.75;23.12;;;;;;;0.12;85.65;99374.77;1728510;82;25692;-59
2022/11/22 02:34:05;;;;;;;63.52;23.42;;;;;;;0.10;85.58;99368.92;1723275;82;25472;-59
2022/11/22 02:36:37;;;;;;;71.10;23.87;;;;;;;0.09;85.67;99370.00;1725175;82;27445;-58
2022/11/22 02:39:05;;;;;;;68.87;23.45;;;;;;;0.09;85.67;99372.66;1723603;82;25504;-58
2022/11/22 02:41:33;;;;;;;65.40;23.05;;;;;;;0.08;85.66;99370.51;1724634;82;25763;-59
2022/11/22 02:44:00;;;;;;;68.30;22.75;;;;;;;0.10;85.83;99374.23;1725087;82;26215;-60
2022/11/22 02:46:26;;;;;;;69.37;24.25;;;;;;;0.09;85.78;99376.65;1726007;82;25870;-59
2022/11/22 02:48:52;;;;;;;71.80;24.87;;;;;;;0.08;85.69;99375.83;1725055;82;27350;-60
2022/11/22 02:51:18;;;;;;;75.65;25.00;;;;;;;0.09;85.64;99373.98;1724141;82;25826;-60
2022/11/22 02:53:48;;;;;;;73.45;24.77;;;;;;;0.09;85.58;99388.08;1728308;82;25445;-60
2022/11/22 02:56:16;;;;;;;65.65;23.15;;;;;;;0.10;85.68;99391.02;1733211;82;25730;-59
2022/11/22 02:58:43;;;;;;;74.95;22.82;;;;;;;0.12;85.70;99390.73;1725409;82;25806;-60
2022/11/22 03:01:12;;;;;;;78.70;25.60;;;;;;;0.13;85.68;99393.13;1716341;82;27378;-59
2022/11/22 03:03:38;;;;;;;71.02;23.30;;;;;;;0.13;85.71;99387.02;1728053;82;25746;-59
2022/11/22 03:06:05;;;;;;;68.85;24.02;;;;;;;0.14;85.73;99392.62;1731357;81;26343;-60
2022/11/22 03:08:32;;;;;;;70.00;23.77;;;;;;;0.14;85.69;99397.40;1724503;82;25625;-58
2022/11/22 03:10:59;;;;;;;64.40;23.02;;;;;;;0.15;85.71;99384.37;1730822;82;25810;-58
2022/11/22 03:13:26;;;;;;;69.58;23.55;;;;;;;0.18;85.69;99391.02;1722401;82;28107;-59
2022/11/22 03:15:52;;;;;;;68.07;22.67;;;;;;;0.17;85.71;99382.76;1736521;82;25874;-59
2022/11/22 03:18:19;;;;;;;66.92;24.50;;;;;;;0.18;85.65;99383.83;1727223;82;25813;-58
2022/11/22 03:20:45;;;;;;;73.92;26.27;;;;;;;0.20;85.67;99384.91;1726276;82;25878;-60
2022/11/22 03:23:12;;;;;;;66.20;23.73;;;;;;;0.21;85.69;99380.41;1725209;82;25400;-59
2022/11/22 03:25:40;;;;;;;71.20;24.45;;;;;;;0.21;85.64;99381.20;1722540;82;27397;-59
2022/11/22 03:28:06;;;;;;;67.62;25.10;;;;;;;0.21;85.67;99376.41;1723246;82;25761;-60
2022/11/22 03:30:33;;;;;;;64.75;24.35;;;;;;;0.23;85.61;99382.27;1732606;82;25715;-60
2022/11/22 03:32:59;;;;;;;62.58;23.07;;;;;;;0.23;85.59;99387.05;1728959;81;25586;-60
2022/11/22 03:35:25;;;;;;;72.78;25.75;;;;;;;0.25;85.58;99383.59;1725730;81;25488;-59
2022/11/22 03:37:52;;;;;;;70.67;25.75;;;;;;;0.25;85.50;99385.45;1733460;81;29606;-59
2022/11/22 03:40:19;;;;;;;70.22;24.35;;;;;;;0.25;85.52;99382.80;1724156;82;25703;-59
2022/11/22 03:42:46;;;;;;;62.62;23.30;;;;;;;0.26;85.57;99389.19;1719482;82;25808;-59
2022/11/22 03:45:12;;;;;;;67.87;24.07;;;;;;;0.27;85.58;99392.09;1724532;82;25656;-60
2022/11/22 03:47:38;;;;;;;70.65;23.77;;;;;;;0.28;85.59;99395.03;1730645;82;25782;-59
2022/11/22 03:50:06;;;;;;;58.45;22.73;;;;;;;0.27;85.46;99393.42;1724654;82;27357;-58
2022/11/22 03:52:32;;;;;;;69.92;23.42;;;;;;;0.26;85.39;99389.19;1732363;81;25891;-60
2022/11/22 03:54:58;;;;;;;68.10;25.12;;;;;;;0.26;85.35;99384.41;1733230;81;25442;-61
2022/11/22 03:57:24;;;;;;;68.47;24.12;;;;;;;0.26;85.43;99385.73;1725057;82;25827;-60
2022/11/22 03:59:51;;;;;;;65.90;24.87;;;;;;;0.25;85.44;99388.11;1726975;82;25421;-60
2022/11/22 04:02:17;;;;;;;70.12;23.70;;;;;;;0.23;85.37;99388.38;1724610;82;27387;-60
2022/11/22 04:04:43;;;;;;;66.22;22.98;;;;;;;0.23;85.52;99383.59;1723840;82;25491;-59
2022/11/22 04:07:09;;;;;;;77.60;25.60;;;;;;;0.21;85.50;99381.20;1726179;82;25875;-59
2022/11/22 04:09:36;;;;;;;65.10;23.18;;;;;;;0.20;85.50;99383.58;1727647;82;25548;-59
2022/11/22 04:12:03;;;;;;;68.47;23.30;;;;;;;0.19;85.56;99381.99;1723717;82;25419;-59
2022/11/22 04:17:39;;;;;;;70.78;22.60;;;;;;;0.21;85.74;99379.08;1729439;82;26247;-59
2022/11/22 04:21:32;;;;;;;57.58;21.80;;;;;;;0.19;85.67;99384.66;1723078;82;25393;-59
2022/11/22 04:22:11;;;;;;;67.22;22.60;;;;;;;0.18;85.78;99380.38;1721138;82;27826;-60
2022/11/22 04:27:22;;;;;;;66.33;21.65;;;;;;;0.18;85.76;99381.71;1727840;82;27441;-60
2022/11/22 04:29:48;;;;;;;65.72;22.65;;;;;;;0.15;85.73;99380.39;1728318;82;25470;-60
2022/11/22 04:34:59;;;;;;;65.20;21.82;;;;;;;0.15;85.92;99380.39;1724234;82;26375;-58
2022/11/22 04:37:25;;;;;;;69.62;21.15;;;;;;;0.14;85.95;99378.78;1723348;82;25804;-59
2022/11/22 04:39:52;;;;;;;65.03;22.77;;;;;;;0.14;85.97;99379.32;1726463;82;27380;-59
2022/11/22 04:45:05;;;;;;;75.12;21.90;;;;;;;0.14;86.06;99376.66;1727581;82;25333;-58
2022/11/22 04:53:01;;;;;;;71.05;21.37;;;;;;;0.11;86.16;99375.31;1731006;82;27404;-60
2022/11/22 04:55:27;;;;;;;62.78;22.10;;;;;;;0.09;86.18;99374.78;1727904;82;25755;-59
2022/11/22 04:57:53;;;;;;;64.67;21.35;;;;;;;0.08;86.19;99371.05;1728551;82;25550;-59
2022/11/22 05:00:20;;;;;;;67.85;22.75;;;;;;;0.08;86.27;99371.84;1734620;81;35381;-59
2022/11/22 05:02:46;;;;;;;77.72;22.82;;;;;;;0.09;86.35;99364.68;1725656;81;25858;-59
2022/11/22 05:05:13;;;;;;;80.83;24.55;;;;;;;0.10;86.30;99362.27;1729760;82;26555;-59
2022/11/22 05:07:39;;;;;;;71.87;23.55;;;;;;;0.08;86.30;99360.41;1727381;81;25447;-59
2022/11/22 05:10:07;;;;;;;77.55;25.30;;;;;;;0.06;86.29;99356.69;1727464;82;25470;-59
2022/11/22 05:12:33;;;;;;;73.60;23.45;;;;;;;0.06;86.37;99357.22;1728324;82;25738;-59
2022/11/22 05:15:00;;;;;;;70.85;22.75;;;;;;;0.05;86.40;99362.26;1727890;82;25806;-60
2022/11/22 05:17:26;;;;;;;69.15;23.42;;;;;;;0.04;86.45;99364.66;1730407;82;27334;-58
2022/11/22 05:19:53;;;;;;;74.25;22.00;;;;;;;0.02;86.43;99372.91;1721385;82;25788;-59
2022/11/22 05:23:53;;;;;;;69.85;22.93;;;;;;;0.03;86.50;99375.02;1718244;82;25866;-58
2022/11/22 05:24:50;;;;;;;74.15;22.45;;;;;;;0.02;86.58;99374.73;1729891;82;25643;-60
2022/11/22 05:27:16;;;;;;;71.55;23.42;;;;;;;0.02;86.69;99381.39;1729515;82;25868;-61
2022/11/22 05:29:42;;;;;;;68.52;23.05;;;;;;;0.01;86.74;99385.91;1728894;82;27252;-60
2022/11/22 05:32:08;;;;;;;71.62;23.10;;;;;;;0.00;86.67;99385.66;1728299;81;25736;-59
2022/11/22 05:34:34;;;;;;;78.50;24.05;;;;;;;-0.01;86.78;99384.05;1728183;82;25725;-60
2022/11/22 05:37:01;;;;;;;72.87;22.62;;;;;;;-0.01;86.84;99390.70;1727347;82;27881;-60
2022/11/22 05:39:28;;;;;;;75.70;22.80;;;;;;;-0.04;86.90;99385.36;1739879;81;25686;-60
2022/11/22 05:41:56;;;;;;;84.40;23.42;;;;;;;0.00;87.02;99388.33;1724663;82;27342;-59
2022/11/22 05:44:23;;;;;;;70.92;22.07;;;;;;;-0.01;86.99;99389.38;1732445;81;25419;-60
2022/11/22 05:46:49;;;;;;;86.40;24.98;;;;;;;-0.03;87.04;99390.96;1731210;81;25868;-60
2022/11/22 05:49:15;;;;;;;83.72;24.60;;;;;;;-0.02;87.04;99395.73;1714717;82;25712;-60
2022/11/22 05:51:41;;;;;;;91.50;25.85;;;;;;;-0.04;87.12;99398.66;1725906;82;25849;-60
2022/11/22 05:54:08;;;;;;;82.45;23.62;;;;;;;-0.03;87.19;99400.27;1721168;82;27355;-59
2022/11/22 05:56:34;;;;;;;78.92;23.95;;;;;;;-0.01;87.27;99401.34;1724903;82;25840;-59
2022/11/22 05:59:01;;;;;;;87.40;24.70;;;;;;;-0.04;87.21;99413.28;1729224;82;25822;-59
2022/11/22 06:01:27;;;;;;;82.00;25.02;;;;;;;-0.03;87.25;99420.75;1733118;82;26384;-59
2022/11/22 06:03:54;;;;;;;84.10;24.30;;;;;;;-0.03;87.32;99430.05;1726476;82;25475;-59
2022/11/22 06:06:22;;;;;;;90.95;24.92;;;;;;;-0.02;87.39;99431.63;1714360;82;27939;-60
2022/11/22 06:08:50;;;;;;;75.35;23.77;;;;;;;-0.05;87.41;99430.31;1723549;82;27179;-59
2022/11/22 06:11:26;;;;;;;84.25;24.40;;;;;;;-0.04;87.33;99437.20;1720552;82;25507;-60
2022/11/22 06:13:59;;;;;;;70.72;22.77;;;;;;;-0.04;87.42;99439.86;1720613;82;25682;-60
2022/11/22 06:16:27;;;;;;;77.97;22.65;;;;;;;-0.03;87.53;99445.46;1710907;82;25442;-60
2022/11/22 06:18:54;;;;;;;78.10;23.50;;;;;;;-0.05;87.57;99440.94;1726938;82;27213;-58
2022/11/22 06:21:24;;;;;;;76.67;25.15;;;;;;;-0.04;87.64;99439.86;1722134;82;25762;-59
2022/11/22 06:23:53;;;;;;;95.12;24.80;;;;;;;-0.04;87.71;99438.53;1726185;82;25437;-59
2022/11/22 06:26:23;;;;;;;86.78;26.30;;;;;;;-0.02;87.79;99436.44;1727572;82;25760;-59
2022/11/22 06:28:51;;;;;;;75.55;23.57;;;;;;;-0.02;87.82;99436.44;1729828;82;25384;-60
2022/11/22 06:31:22;;;;;;;78.70;24.98;;;;;;;0.02;87.82;99439.89;1724361;82;28120;-59
2022/11/22 06:33:50;;;;;;;89.15;25.35;;;;;;;0.03;87.85;99438.84;1726638;82;25811;-58
2022/11/22 06:36:21;;;;;;;95.12;27.02;;;;;;;0.02;87.87;99435.39;1729210;82;25637;-64
2022/11/22 06:38:48;;;;;;;98.58;26.05;;;;;;;0.04;87.90;99439.13;1724265;81;27828;-66
2022/11/22 06:41:18;;;;;;;88.78;26.35;;;;;;;0.07;88.00;99447.38;1732182;82;25874;-64
2022/11/22 06:43:47;;;;;;;85.65;25.15;;;;;;;0.10;88.03;99454.02;1717923;82;27377;-63
2022/11/22 06:46:16;;;;;;;79.92;24.05;;;;;;;0.10;87.97;99460.16;1724851;82;25496;-63
2022/11/22 06:48:43;;;;;;;64.67;19.10;;;;;;;0.11;87.91;99456.42;1730869;81;25693;-64
2022/11/22 06:51:15;;;;;;;90.12;23.05;;;;;;;0.13;87.93;99467.59;1729571;82;25787;-63
2022/11/22 06:53:41;;;;;;;90.50;26.62;;;;;;;0.12;87.91;99462.53;1725726;82;25863;-65
2022/11/22 06:56:14;;;;;;;82.25;26.35;;;;;;;0.14;87.97;99469.74;1720621;82;27277;-63
2022/11/22 06:58:41;;;;;;;91.17;28.27;;;;;;;0.15;88.06;99472.66;1728096;82;25666;-58
2022/11/22 07:01:17;;;;;;;87.67;26.65;;;;;;;0.16;88.02;99472.40;1723751;81;25848;-58
2022/11/22 07:03:45;;;;;;;97.53;27.25;;;;;;;0.18;87.95;99476.92;1730405;82;25714;-62
2022/11/22 07:06:15;;;;;;;79.60;23.85;;;;;;;0.19;87.99;99480.40;1726523;82;25850;-59
2022/11/22 07:08:43;;;;;;;99.15;28.00;;;;;;;0.21;88.08;99476.95;1722758;82;29532;-59
2022/11/22 07:11:17;;;;;;;95.30;26.93;;;;;;;0.22;88.12;99475.87;1724519;81;25815;-59
2022/11/22 07:13:44;;;;;;;86.65;25.77;;;;;;;0.24;88.23;99479.09;1765276;80;25434;-60
2022/11/22 07:16:15;;;;;;;93.97;26.48;;;;;;;0.24;88.22;99477.77;1732463;81;25827;-59
2022/11/22 07:18:42;;;;;;;100.40;29.32;;;;;;;0.24;88.24;99474.28;1736967;82;25807;-59
2022/11/22 07:21:17;;;;;;;94.13;27.70;;;;;;;0.26;88.35;99473.52;1721741;82;27333;-58
2022/11/22 07:23:48;;;;;;;94.65;28.87;;;;;;;0.26;88.42;99473.52;1732383;82;25890;-60
2022/11/22 07:26:17;;;;;;;93.50;29.35;;;;;;;0.27;88.46;99473.23;1697382;82;25730;-60
2022/11/22 07:28:44;;;;;;;107.47;27.10;;;;;;;0.30;88.53;99481.23;1732982;82;25689;-59
2022/11/22 07:31:14;;;;;;;98.27;28.95;;;;;;;0.30;88.58;99478.03;1726910;82;25834;-60
2022/11/22 07:33:43;;;;;;;95.67;27.65;;;;;;;0.31;88.67;99480.19;1738672;81;27342;-58
2022/11/22 07:36:14;;;;;;;65.53;19.57;;;;;;;0.34;88.75;99487.62;1733775;81;25475;-59
2022/11/22 07:38:40;;;;;;;94.20;28.30;;;;;;;0.36;88.79;99485.52;1722382;82;25389;-59
2022/11/22 07:41:08;;;;;;;83.00;25.43;;;;;;;0.39;88.85;99484.19;1718885;82;25655;-58
2022/11/22 07:43:36;;;;;;;59.55;17.10;;;;;;;0.39;88.82;99477.53;1717714;82;25495;-58
2022/11/22 07:46:29;;;;;;;96.35;28.38;;;;;;;0.41;88.82;99488.20;1725332;82;27458;-58
2022/11/22 07:49:01;;;;;;;93.87;29.10;;;;;;;0.43;88.69;99487.94;1725112;82;25862;-59
2022/11/22 07:51:29;;;;;;;105.95;29.80;;;;;;;0.42;88.62;99500.42;1719848;82;25811;-58
2022/11/22 07:53:56;;;;;;;106.30;32.63;;;;;;;0.42;88.70;99500.42;1725413;82;26355;-58
2022/11/22 07:56:23;;;;;;;120.22;34.73;;;;;;;0.43;88.77;99503.91;1730771;82;25816;-57
2022/11/22 07:58:50;;;;;;;108.00;31.82;;;;;;;0.42;88.75;99500.42;1722002;82;27307;-60
2022/11/22 08:01:18;;;;;;;108.57;31.10;;;;;;;0.41;88.94;99488.20;1720701;82;25825;-57
2022/11/22 08:03:46;;;;;;;108.52;31.10;;;;;;;0.46;89.08;99488.72;1723299;82;26255;-58
2022/11/22 08:06:14;;;;;;;108.12;31.90;;;;;;;0.47;89.10;99482.36;1721065;82;25828;-58
2022/11/22 08:08:40;;;;;;;105.43;33.98;;;;;;;0.49;89.14;99485.55;1723494;82;25421;-58
2022/11/22 08:11:09;;;;;;;129.00;35.38;;;;;;;0.49;89.07;99486.88;1735589;82;27371;-58
2022/11/22 08:13:36;;;;;;;110.00;31.97;;;;;;;0.50;89.11;99492.48;1730253;82;25429;-57
2022/11/22 08:16:11;;;;;;;119.05;31.90;;;;;;;0.51;89.23;99491.41;1725960;82;25918;-57
2022/11/22 08:18:39;;;;;;;121.87;33.67;;;;;;;0.54;89.30;99492.21;1733979;82;25646;-58
2022/11/22 08:21:13;;;;;;;113.60;31.87;;;;;;;0.54;89.19;99489.55;1724230;82;25729;-59
2022/11/22 08:23:41;;;;;;;106.30;30.48;;;;;;;0.51;89.12;99487.41;1725116;81;27359;-58
2022/11/22 08:26:11;;;;;;;120.15;33.45;;;;;;;0.52;89.16;99478.38;1728581;82;25854;-58
2022/11/22 08:28:40;;;;;;;105.87;30.55;;;;;;;0.51;89.28;99484.75;1727417;81;25402;-58
2022/11/22 08:31:11;;;;;;;115.15;34.63;;;;;;;0.54;89.39;99500.20;1731874;82;25841;-57
2022/11/22 08:33:39;;;;;;;121.57;32.08;;;;;;;0.55;89.49;99501.27;1726452;82;25457;-58
2022/11/22 08:36:06;;;;;;;125.67;35.52;;;;;;;0.59;89.50;99497.55;1725427;82;27966;-58
2022/11/22 08:38:33;;;;;;;112.37;32.67;;;;;;;0.61;89.63;99503.41;1737919;81;25701;-58
2022/11/22 08:40:59;;;;;;;107.30;33.23;;;;;;;0.62;89.52;99508.22;1730563;81;25831;-59
2022/11/22 08:43:26;;;;;;;117.62;32.65;;;;;;;0.60;89.41;99509.81;1718721;82;25566;-58
2022/11/22 08:45:57;;;;;;;109.72;30.35;;;;;;;0.62;89.47;99514.88;1723664;82;25902;-58
2022/11/22 08:48:24;;;;;;;120.15;33.90;;;;;;;0.64;89.55;99511.41;1731466;82;28095;-58
2022/11/22 08:50:59;;;;;;;112.65;32.73;;;;;;;0.65;89.63;99511.16;1722192;82;25796;-58
2022/11/22 08:53:28;;;;;;;118.30;31.50;;;;;;;0.66;89.59;99515.40;1725744;82;25788;-58
2022/11/22 08:56:00;;;;;;;119.82;32.20;;;;;;;0.67;89.55;99510.36;1726659;82;25655;-57
2022/11/22 08:58:30;;;;;;;116.62;32.65;;;;;;;0.68;89.63;99512.47;1728826;82;26082;-58
2022/11/22 09:01:06;;;;;;;105.27;32.03;;;;;;;0.69;89.56;99510.89;1722991;82;27600;-58
2022/11/22 09:03:35;;;;;;;101.78;30.90;;;;;;;0.68;89.59;99510.64;1721754;82;25748;-57
2022/11/22 09:06:05;;;;;;;90.47;24.77;;;;;;;0.72;89.71;99515.69;1724269;82;25750;-58
2022/11/22 09:08:32;;;;;;;119.02;34.90;;;;;;;0.70;89.52;99513.83;1719894;82;25814;-58
2022/11/22 09:11:04;;;;;;;116.15;33.42;;;;;;;0.72;89.71;99514.36;1727073;82;25895;-59
2022/11/22 09:13:31;;;;;;;119.28;33.55;;;;;;;0.73;89.78;99513.31;1726186;81;27368;-59
2022/11/22 09:16:05;;;;;;;109.03;33.30;;;;;;;0.75;89.75;99513.05;1723132;81;25863;-58
2022/11/22 09:18:32;;;;;;;108.78;34.13;;;;;;;0.77;89.70;99521.56;1721526;82;25503;-58
2022/11/22 09:21:00;;;;;;;106.83;33.13;;;;;;;0.79;89.76;99523.97;1726639;82;25843;-59
2022/11/22 09:23:28;;;;;;;109.07;32.10;;;;;;;0.79;89.72;99514.66;1726786;82;25879;-59
2022/11/22 09:26:05;;;;;;;111.72;31.55;;;;;;;0.81;89.92;99517.30;1727683;82;27287;-58
2022/11/22 09:28:33;;;;;;;127.72;32.80;;;;;;;0.86;90.04;99520.52;1732675;82;25980;-58
2022/11/22 09:31:08;;;;;;;114.32;32.93;;;;;;;0.87;89.90;99518.11;1722273;82;25445;-58
2022/11/22 09:33:37;;;;;;;116.12;33.50;;;;;;;0.88;89.78;99507.73;1723651;82;26560;-58
2022/11/22 09:36:09;;;;;;;105.63;30.88;;;;;;;0.89;89.89;99506.69;1721258;82;25486;-59
2022/11/22 09:38:38;;;;;;;117.93;32.95;;;;;;;0.95;89.86;99525.58;1729281;81;27319;-58
2022/11/22 09:41:35;;;;;;;100.05;30.97;;;;;;;0.93;89.99;99515.19;1743682;81;25810;-59
2022/11/22 09:44:28;;;;;;;95.38;29.23;;;;;;;0.97;89.99;99515.48;1724820;81;25822;-59
2022/11/22 09:47:06;;;;;;;104.87;30.77;;;;;;;0.97;89.89;99512.83;1729688;82;25828;-58
2022/11/22 09:49:48;;;;;;;122.05;36.25;;;;;;;1.02;89.99;99520.00;1731809;82;25435;-57
2022/11/22 09:52:31;;;;;;;120.65;36.00;;;;;;;1.04;89.98;99528.02;1724574;81;29261;-58
2022/11/22 09:55:12;;;;;;;117.97;33.13;;;;;;;1.07;89.91;99531.48;1735889;81;25883;-59
2022/11/22 09:57:46;;;;;;;114.47;33.15;;;;;;;1.09;89.67;99529.86;1731364;82;25620;-59
2022/11/22 10:00:24;;;;;;;117.97;34.05;;;;;;;1.11;89.81;99525.09;1731870;81;26249;-58
2022/11/22 10:03:19;;;;;;;113.00;32.90;;;;;;;1.14;89.99;99526.41;1730368;81;25934;-59
2022/11/22 10:05:53;;;;;;;112.77;31.97;;;;;;;1.17;89.96;99519.23;1660238;85;27361;-59
2022/11/22 10:08:59;;;;;;;133.47;37.60;;;;;;;1.21;89.94;99526.95;1662260;85;25910;-58
2022/11/22 10:11:43;;;;;;;133.95;40.85;;;;;;;1.24;89.95;99526.42;1639112;85;25790;-58
2022/11/22 10:14:30;;;;;;;130.00;41.40;;;;;;;1.25;89.65;99516.83;1658913;85;26570;-59
2022/11/22 10:17:19;;;;;;;141.68;43.23;;;;;;;1.29;89.72;99520.58;1644843;86;25696;-59
2022/11/22 10:19:53;;;;;;;131.87;42.17;;;;;;;1.35;89.84;99517.92;1647328;85;27369;-60
2022/11/22 10:22:20;;;;;;;140.65;43.13;;;;;;;1.40;89.90;99499.27;1658481;85;25900;-58
2022/11/22 10:24:47;;;;;;;135.30;42.85;;;;;;;1.46;89.98;99505.66;1655372;86;25943;-58
2022/11/22 10:27:14;;;;;;;122.98;41.45;;;;;;;1.51;89.86;99504.05;1651661;85;25534;-57
2022/11/22 10:30:04;;;;;;;136.62;43.10;;;;;;;1.55;89.74;99508.58;1654619;85;25620;-59
2022/11/22 10:32:39;;;;;;;129.80;39.80;;;;;;;1.59;89.51;99508.84;1588288;89;27937;-59
2022/11/22 10:35:36;;;;;;;132.70;42.13;;;;;;;1.64;89.53;99500.84;1580779;89;25542;-60
2022/11/22 10:38:36;;;;;;;180.70;60.45;;;;;;;1.69;89.35;99492.83;1594413;88;25968;-59
2022/11/22 10:41:28;;;;;;;141.25;47.80;;;;;;;1.72;89.34;99497.63;1583229;88;25748;-59
2022/11/22 10:44:24;;;;;;;134.97;41.10;;;;;;;1.74;88.91;99512.81;1612164;87;25778;-59
2022/11/22 10:47:38;;;;;;;130.52;40.28;;;;;;;1.74;88.71;99524.82;1602761;87;28095;-59
2022/11/22 10:50:23;;;;;;;125.75;39.88;;;;;;;1.74;88.52;99526.15;1640006;87;25916;-59
2022/11/22 10:53:01;;;;;;;131.45;41.65;;;;;;;1.75;88.49;99530.40;1604874;87;25833;-60
2022/11/22 10:56:07;;;;;;;130.22;43.58;;;;;;;1.80;88.43;99530.39;1604880;87;25631;-59
2022/11/22 10:59:14;;;;;;;119.47;38.83;;;;;;;1.80;88.43;99530.39;1606843;88;25544;-58
2022/11/22 11:02:00;;;;;;;130.50;36.55;;;;;;;1.82;88.62;99534.13;1631215;86;27389;-59
2022/11/22 11:04:34;;;;;;;117.80;35.30;;;;;;;1.88;88.74;99539.73;1635717;86;26077;-62
2022/11/22 11:07:04;;;;;;;122.90;39.67;;;;;;;1.91;88.82;99543.20;1681014;82;25795;-57
2022/11/22 11:09:42;;;;;;;123.33;41.65;;;;;;;1.98;88.75;99554.38;1732996;82;26014;-59
2022/11/22 11:12:20;;;;;;;124.33;40.35;;;;;;;2.00;88.69;99557.56;1734919;81;25773;-58
2022/11/22 11:14:55;;;;;;;114.52;40.83;;;;;;;2.07;88.73;99559.17;1732249;81;27349;-59
2022/11/22 11:17:30;;;;;;;113.65;39.75;;;;;;;2.12;88.84;99550.61;1737595;81;25500;-60
2022/11/22 11:20:05;;;;;;;117.22;38.92;;;;;;;2.18;88.62;99556.72;1740260;81;25480;-57
2022/11/22 11:22:38;;;;;;;113.68;38.67;;;;;;;2.20;88.36;99557.27;1734455;81;25634;-62
2022/11/22 11:25:42;;;;;;;121.65;40.58;;;;;;;2.24;88.42;99556.98;1756633;81;25782;-58
2022/11/22 11:28:26;;;;;;;134.57;48.42;;;;;;;2.29;88.08;99555.63;1713657;82;27850;-58
2022/11/22 11:31:12;;;;;;;119.62;39.98;;;;;;;2.32;87.96;99551.09;1719045;82;25787;-57
2022/11/22 11:33:44;;;;;;;109.57;37.55;;;;;;;2.36;87.87;99558.02;1672554;84;25858;-58
2022/11/22 11:36:22;;;;;;;118.75;40.50;;;;;;;2.38;88.04;99547.34;1679528;84;26360;-58
2022/11/22 11:38:57;;;;;;;118.55;39.70;;;;;;;2.43;87.86;99547.33;1679774;84;25664;-59
2022/11/22 11:41:32;;;;;;;136.37;46.90;;;;;;;2.46;87.58;99551.30;1669973;84;27327;-60
2022/11/22 11:44:03;;;;;;;114.20;40.30;;;;;;;2.46;87.23;99544.63;1718572;82;25854;-59
2022/11/22 11:46:47;;;;;;;117.95;39.58;;;;;;;2.48;87.21;99541.15;1662855;85;25858;-59
2022/11/22 11:49:24;;;;;;;102.62;36.93;;;;;;;2.50;87.26;99541.67;1677488;84;26469;-59
2022/11/22 11:52:08;;;;;;;112.72;38.60;;;;;;;2.54;87.16;99528.59;1676105;84;25953;-58
2022/11/22 11:54:47;;;;;;;125.87;45.63;;;;;;;2.53;87.04;99522.44;1677626;84;27345;-59